Archival Weather

Chicago O'Hare International

Chicago, Illinois (KORD)

Report from: Tuesday, September 19, 2023 3:51 AM CDT
Current time: Sunday, May 19, 2024 4:13 AM CDT

Current weather – Weather history – Daily summaries
Weather forecast

Temperature14.4°C (57.9°F)
Dew point11.1°C (52.0°F)
Winds 5 kts (2.6 m/s, 5.8 mph) South-Southeast (150°)
Visibility10 mi. (16.1 km)
Clouds Ceiling: Broken clouds 11,000 ft. (3,353 m)
Broken clouds 25,000 ft. (7,620 m)
Altimeter30.02 in.Hg (1017 mB)
Relative humidity81 %
Density altitude2 ft. (0 m)
Sea-level pressure101.7 kPa (1017 mB, 30.02 in.Hg)
Remarks Automated weather observing station with precipitation discriminator
Pressure rising, then falling
Flight conditions Visual Meteorological Conditions
Raw dataKORD 190851Z 15005KT 10SM BKN110 BKN250 14/11 A3002 RMK AO2 SLP166 T01440111 50002
An error has occurred. This application may no longer respond until reloaded. Reload 🗙